Time;durP1;ratioP1;P1;durP2;ratioP2;P2;SDS_P1;SDS_P2;PMS_P1;PMS_P2;Temp;Humidity;BMP_temperature;BMP_pressure;BME280_temperature;BME280_humidity;BME280_pressure;Samples;Min_cycle;Max_cycle;Signal;HPM_P1;HPM_P2
2021/05/28 00:00:06;;;;;;;11.13;8.77;;;;;;;7.96;84.00;96086.00;5043883;28;20178;-75
2021/05/28 00:02:31;;;;;;;11.80;8.47;;;;;;;7.97;84.13;96085.06;5024134;28;20174;-75
2021/05/28 00:04:56;;;;;;;11.23;9.27;;;;;;;7.89;83.27;96087.41;5033868;28;20665;-76
2021/05/28 00:07:22;;;;;;;11.50;8.87;;;;;;;7.86;83.68;96085.03;5035525;28;20183;-75
2021/05/28 00:09:47;;;;;;;11.40;8.50;;;;;;;7.85;83.16;96084.22;5043593;28;20190;-74
2021/05/28 00:12:12;;;;;;;10.00;7.87;;;;;;;7.77;83.17;96085.75;5045252;28;20286;-75
2021/05/28 00:14:38;;;;;;;9.13;7.30;;;;;;;7.82;82.73;96079.28;5048010;28;20672;-75
2021/05/28 00:17:03;;;;;;;11.97;7.83;;;;;;;7.78;82.89;96085.66;5045808;28;20178;-75
2021/05/28 00:19:28;;;;;;;9.30;6.83;;;;;;;7.85;82.57;96085.97;5046275;28;20265;-75
2021/05/28 00:21:54;;;;;;;7.93;6.57;;;;;;;7.92;82.20;96089.75;5078763;28;20182;-75
2021/05/28 00:24:20;;;;;;;8.30;7.13;;;;;;;7.91;81.54;96093.28;5043584;28;20608;-74
2021/05/28 00:26:45;;;;;;;7.63;6.50;;;;;;;7.96;81.43;96088.59;5022780;28;20599;-75
2021/05/28 00:29:11;;;;;;;9.70;6.57;;;;;;;7.98;81.23;96093.63;5038636;28;20187;-74
2021/05/28 00:31:36;;;;;;;7.93;6.93;;;;;;;7.98;81.43;96091.88;5044346;28;20209;-76
2021/05/28 00:34:02;;;;;;;7.70;6.67;;;;;;;8.02;81.23;96093.28;5045875;28;20288;-74
2021/05/28 00:36:27;;;;;;;6.70;5.93;;;;;;;8.04;81.15;96094.00;5038173;28;20240;-74
2021/05/28 00:38:53;;;;;;;8.37;6.50;;;;;;;8.10;81.21;96092.69;5038966;28;20174;-74
2021/05/28 00:41:18;;;;;;;5.97;5.40;;;;;;;8.11;81.20;96095.13;5043906;28;20542;-74
2021/05/28 00:43:43;;;;;;;9.40;5.67;;;;;;;8.15;80.86;96093.16;5045921;28;20224;-74
2021/05/28 00:46:09;;;;;;;6.10;5.53;;;;;;;8.13;80.82;96090.69;5031158;28;20185;-76
2021/05/28 00:48:34;;;;;;;10.60;5.97;;;;;;;8.17;80.69;96093.84;5033277;28;20262;-74
2021/05/28 00:51:00;;;;;;;7.10;5.83;;;;;;;8.15;80.68;96095.75;5042476;28;20186;-74
2021/05/28 00:53:27;;;;;;;7.63;5.97;;;;;;;8.16;80.55;96087.84;5048214;28;20209;-74
2021/05/28 00:55:52;;;;;;;8.47;6.30;;;;;;;8.15;80.20;96090.56;5043545;28;20248;-74
2021/05/28 00:58:18;;;;;;;9.43;6.37;;;;;;;8.11;79.57;96089.97;5045583;28;20173;-73
2021/05/28 01:00:43;;;;;;;7.20;6.03;;;;;;;8.11;79.51;96092.56;5045373;28;20606;-74
2021/05/28 01:03:09;;;;;;;7.53;5.87;;;;;;;8.12;80.45;96091.59;5046598;28;20288;-74
2021/05/28 01:05:34;;;;;;;6.60;6.00;;;;;;;8.11;80.03;96089.97;5045621;28;20693;-74
2021/05/28 01:07:59;;;;;;;6.67;5.60;;;;;;;8.14;79.84;96089.75;5033632;28;20181;-74
2021/05/28 01:10:25;;;;;;;8.47;5.97;;;;;;;8.15;79.65;96095.75;5048846;28;20185;-75
2021/05/28 01:12:50;;;;;;;7.37;6.00;;;;;;;8.12;78.93;96094.19;5040969;28;20672;-74
2021/05/28 01:15:16;;;;;;;6.60;5.90;;;;;;;8.10;78.96;96098.69;5077295;28;20206;-74
2021/05/28 01:17:41;;;;;;;9.97;6.00;;;;;;;8.09;79.13;96097.03;5042962;28;20270;-74
2021/05/28 01:20:08;;;;;;;8.30;5.90;;;;;;;7.99;79.65;96096.09;5047580;28;20637;-74
2021/05/28 01:22:33;;;;;;;8.03;5.77;;;;;;;7.99;79.75;96087.53;5072635;28;20185;-74
2021/05/28 01:25:00;;;;;;;10.90;5.80;;;;;;;8.03;79.53;96094.91;5044913;28;20189;-74
2021/05/28 01:27:27;;;;;;;7.47;6.00;;;;;;;8.04;79.43;96091.41;5043719;28;20178;-75
2021/05/28 01:29:52;;;;;;;8.80;6.17;;;;;;;7.99;79.57;96090.94;5046549;28;20657;-75
2021/05/28 01:32:17;;;;;;;7.77;5.70;;;;;;;8.03;79.73;96094.09;5037378;28;20224;-75
2021/05/28 01:34:43;;;;;;;7.40;5.33;;;;;;;8.04;79.71;96090.56;5047662;28;20189;-74
2021/05/28 01:37:08;;;;;;;9.83;6.37;;;;;;;8.08;79.94;96085.03;5045444;28;20666;-75
2021/05/28 01:39:33;;;;;;;7.53;6.13;;;;;;;8.09;79.55;96088.44;5045249;28;20835;-75
2021/05/28 01:41:59;;;;;;;7.60;6.30;;;;;;;8.05;79.09;96090.47;5039055;28;20174;-75
2021/05/28 01:44:24;;;;;;;9.77;6.30;;;;;;;8.09;79.42;96091.03;5034256;28;20409;-74
2021/05/28 01:46:50;;;;;;;7.27;5.50;;;;;;;8.13;79.33;96093.28;5048609;28;20559;-75
2021/05/28 01:49:16;;;;;;;7.10;5.47;;;;;;;8.15;79.56;96090.56;5048560;28;20214;-74
2021/05/28 01:51:51;;;;;;;6.00;5.40;;;;;;;8.16;78.95;96087.84;5036695;28;20217;-74
2021/05/28 01:54:20;;;;;;;6.03;5.43;;;;;;;8.19;78.36;96092.78;5046374;28;20198;-75
2021/05/28 01:56:47;;;;;;;5.70;5.10;;;;;;;8.19;78.13;96094.56;5047449;28;20732;-74
2021/05/28 01:59:26;;;;;;;6.33;5.30;;;;;;;8.18;77.69;96091.16;5030986;28;20177;-74
2021/05/28 02:01:54;;;;;;;8.73;5.33;;;;;;;8.20;77.58;96088.44;5046948;28;20178;-76
2021/05/28 02:04:20;;;;;;;7.40;6.30;;;;;;;8.20;77.50;96091.84;5035992;28;20202;-74
2021/05/28 02:06:46;;;;;;;8.00;5.30;;;;;;;8.18;77.46;96091.16;5044423;28;20182;-74
2021/05/28 02:09:12;;;;;;;5.93;4.83;;;;;;;8.19;77.08;96091.97;5048101;28;20627;-76
2021/05/28 02:11:37;;;;;;;7.17;5.20;;;;;;;8.20;77.19;96094.44;5046736;28;20645;-74
2021/05/28 02:14:04;;;;;;;5.57;4.60;;;;;;;8.20;76.79;96102.19;5019300;28;20202;-75
2021/05/28 02:16:29;;;;;;;6.50;4.83;;;;;;;8.19;76.36;96092.78;5039088;28;20186;-74
2021/05/28 02:18:56;;;;;;;9.23;5.10;;;;;;;8.18;76.46;96092.91;5028387;28;20672;-74
2021/05/28 02:21:21;;;;;;;5.37;4.43;;;;;;;8.14;76.07;96097.50;5030767;28;20206;-74
2021/05/28 02:23:46;;;;;;;5.90;4.90;;;;;;;8.14;76.44;96088.94;5048927;28;20299;-74
2021/05/28 02:26:12;;;;;;;7.13;5.07;;;;;;;8.14;76.30;96094.94;5051550;28;20269;-74
2021/05/28 02:28:37;;;;;;;7.63;5.00;;;;;;;8.13;76.36;96093.28;5048381;28;20185;-74
2021/05/28 02:31:02;;;;;;;7.17;4.33;;;;;;;8.15;75.78;96100.91;5049423;28;20194;-74
2021/05/28 02:33:28;;;;;;;9.90;4.87;;;;;;;8.15;76.00;96095.75;5038494;28;20243;-74
2021/05/28 02:35:53;;;;;;;8.13;4.53;;;;;;;8.13;75.75;96090.69;5033744;28;20187;-77
2021/05/28 02:38:18;;;;;;;5.03;4.10;;;;;;;8.12;75.89;96083.84;5037277;28;20193;-74
2021/05/28 02:40:44;;;;;;;7.77;4.90;;;;;;;8.09;75.12;96080.69;5047601;28;20190;-74
2021/05/28 02:43:09;;;;;;;6.33;4.23;;;;;;;8.10;75.52;96090.91;5037090;28;20205;-74
2021/05/28 02:45:35;;;;;;;6.93;5.00;;;;;;;8.07;75.20;96088.56;5048586;28;20537;-75
2021/05/28 02:48:00;;;;;;;7.00;4.40;;;;;;;8.06;75.36;96086.13;5036417;28;20643;-74
2021/05/28 02:50:26;;;;;;;5.57;3.97;;;;;;;8.01;75.12;96083.88;5045245;28;20645;-74
2021/05/28 02:52:51;;;;;;;6.70;4.37;;;;;;;7.99;75.32;96090.09;5031614;28;20213;-73
2021/05/28 02:55:16;;;;;;;6.73;4.90;;;;;;;7.94;75.08;96085.28;5046118;28;20193;-75
2021/05/28 02:57:42;;;;;;;6.67;4.73;;;;;;;7.95;75.48;96089.50;5047285;28;20190;-75
2021/05/28 03:00:08;;;;;;;5.60;4.30;;;;;;;7.94;74.68;96087.88;5038510;28;20193;-75
2021/05/28 03:02:33;;;;;;;5.73;3.97;;;;;;;7.93;74.99;96096.56;5048821;28;20171;-74
2021/05/28 03:04:58;;;;;;;7.83;5.00;;;;;;;7.94;75.11;96093.84;5045959;28;20684;-74
2021/05/28 03:07:24;;;;;;;8.43;4.80;;;;;;;7.94;75.24;96095.63;5039262;28;20190;-74
2021/05/28 03:09:49;;;;;;;6.17;4.07;;;;;;;7.94;75.41;96096.44;5045223;28;20262;-74
2021/05/28 03:12:14;;;;;;;9.50;5.00;;;;;;;7.92;75.14;96089.75;5046948;28;20242;-75
2021/05/28 03:14:40;;;;;;;6.03;4.50;;;;;;;7.94;74.84;96090.44;5039156;28;20311;-74
2021/05/28 03:17:05;;;;;;;8.60;4.77;;;;;;;7.90;75.50;96097.63;5026642;28;20610;-75
2021/05/28 03:19:41;;;;;;;6.67;4.30;;;;;;;7.83;75.79;96088.69;5029674;28;20190;-74
2021/05/28 03:24:50;;;;;;;4.93;4.43;;;;;;;7.80;76.68;96094.09;5041058;28;20711;-75
2021/05/28 03:27:15;;;;;;;6.53;4.80;;;;;;;7.80;76.64;96094.09;5044893;28;20197;-75
2021/05/28 03:29:41;;;;;;;8.63;4.67;;;;;;;7.79;76.85;96091.66;5048163;28;20235;-75
2021/05/28 03:32:06;;;;;;;7.30;4.50;;;;;;;7.76;76.45;96095.25;5047852;28;20230;-76
2021/05/28 03:34:32;;;;;;;5.57;4.97;;;;;;;7.76;77.04;96094.44;5046081;28;20837;-76
2021/05/28 03:36:59;;;;;;;8.63;5.07;;;;;;;7.76;76.91;96095.25;5046620;28;20259;-75
2021/05/28 03:39:24;;;;;;;7.80;5.67;;;;;;;7.77;76.60;96090.91;5030051;28;20834;-76
2021/05/28 03:41:50;;;;;;;10.03;4.93;;;;;;;7.79;76.88;96094.22;5048223;28;20186;-76
2021/05/28 03:44:15;;;;;;;7.93;5.20;;;;;;;7.76;76.87;96092.69;5046510;28;20683;-75
2021/05/28 03:46:40;;;;;;;6.40;5.00;;;;;;;7.64;76.82;96091.03;5041241;28;20191;-76
2021/05/28 03:49:05;;;;;;;8.13;6.43;;;;;;;7.71;76.88;96091.41;5035329;28;20186;-76
2021/05/28 03:51:32;;;;;;;9.40;5.33;;;;;;;7.72;77.13;96093.03;5014832;28;20193;-75
2021/05/28 03:53:57;;;;;;;6.70;5.57;;;;;;;7.77;77.20;96093.50;5042290;28;20564;-75
2021/05/28 03:56:22;;;;;;;5.83;5.23;;;;;;;7.78;77.23;96090.81;5031935;28;20190;-75
2021/05/28 03:58:48;;;;;;;9.73;5.50;;;;;;;7.76;77.45;96092.69;5037412;28;20189;-75
2021/05/28 04:01:13;;;;;;;6.03;4.87;;;;;;;7.75;77.59;96093.63;5017383;28;20194;-76
2021/05/28 04:03:38;;;;;;;8.27;5.43;;;;;;;7.77;77.47;96090.91;5045290;28;20204;-75
2021/05/28 04:06:04;;;;;;;8.13;5.50;;;;;;;7.74;77.70;96084.22;5029235;28;20220;-75
2021/05/28 04:08:29;;;;;;;8.90;6.43;;;;;;;7.71;78.11;96081.06;5040756;28;20183;-76
2021/05/28 04:10:54;;;;;;;9.83;6.70;;;;;;;7.72;78.17;96077.53;5035102;28;20186;-76
2021/05/28 04:13:20;;;;;;;9.70;6.57;;;;;;;7.71;77.75;96081.06;5044381;28;20224;-76
2021/05/28 04:15:45;;;;;;;8.50;6.90;;;;;;;7.75;78.22;96080.69;5028673;28;20190;-76
2021/05/28 04:18:10;;;;;;;10.13;7.47;;;;;;;7.73;78.01;96084.34;5045441;28;20186;-75
2021/05/28 04:20:37;;;;;;;9.67;6.83;;;;;;;7.74;77.69;96076.47;5040855;28;20313;-74
2021/05/28 04:23:02;;;;;;;9.23;7.27;;;;;;;7.69;77.72;96078.59;5033360;28;20203;-75
2021/05/28 04:25:28;;;;;;;8.33;7.23;;;;;;;7.72;77.89;96080.13;5076242;28;20209;-76
2021/05/28 04:27:53;;;;;;;13.87;7.87;;;;;;;7.80;77.15;96085.53;5045888;28;20179;-76
2021/05/28 04:30:23;;;;;;;14.63;7.20;;;;;;;8.01;76.82;96083.03;5045882;28;20205;-76
2021/05/28 04:32:52;;;;;;;12.37;7.27;;;;;;;8.14;76.41;96081.16;5046659;28;20225;-76
2021/05/28 04:35:17;;;;;;;12.37;8.37;;;;;;;8.18;75.65;96085.16;5037848;28;20198;-76
2021/05/28 04:37:43;;;;;;;11.43;7.97;;;;;;;8.24;75.71;96093.25;5046274;28;20669;-76
2021/05/28 04:40:09;;;;;;;9.43;7.70;;;;;;;8.34;75.48;96100.31;5044907;28;20177;-76
2021/05/28 04:42:35;;;;;;;15.80;8.20;;;;;;;8.45;75.06;96098.53;5041463;28;21528;-76
2021/05/28 04:45:00;;;;;;;12.20;9.50;;;;;;;8.97;73.95;96096.97;5040539;28;20186;-75
2021/05/28 04:47:26;;;;;;;15.77;10.17;;;;;;;10.85;66.94;96101.78;5042617;28;20196;-76
2021/05/28 04:49:51;;;;;;;10.10;7.73;;;;;;;12.82;61.86;96112.19;5045788;28;20189;-76
2021/05/28 04:52:16;;;;;;;9.17;6.90;;;;;;;13.92;56.68;96111.78;5020801;28;20206;-76
2021/05/28 04:54:42;;;;;;;6.77;5.37;;;;;;;13.57;56.64;96110.91;5040539;28;20209;-76
2021/05/28 04:57:08;;;;;;;8.10;5.77;;;;;;;12.62;58.18;96113.28;5045729;28;20641;-76
2021/05/28 04:59:33;;;;;;;9.97;5.80;;;;;;;14.20;54.06;96109.00;5024711;28;20185;-75
2021/05/28 05:01:58;;;;;;;7.73;5.70;;;;;;;15.46;52.26;96113.25;5043011;28;20646;-76
2021/05/28 05:04:24;;;;;;;8.00;5.33;;;;;;;15.95;49.56;96121.09;5037194;28;20697;-76
2021/05/28 05:06:49;;;;;;;5.78;4.88;;;;;;;16.78;46.42;96118.84;5038182;28;20194;-74
2021/05/28 05:09:14;;;;;;;11.95;6.00;;;;;;;15.56;49.51;96117.34;5043531;28;20195;-74
2021/05/28 05:11:39;;;;;;;10.07;5.70;;;;;;;14.73;51.62;96112.16;5037059;28;20284;-74
2021/05/28 05:14:05;;;;;;;6.75;5.20;;;;;;;14.98;51.97;96123.50;5047744;28;20684;-73
2021/05/28 05:16:30;;;;;;;6.78;5.30;;;;;;;15.43;49.99;96124.03;5024412;28;20642;-72
2021/05/28 05:18:55;;;;;;;11.00;6.22;;;;;;;13.89;54.29;96125.16;5047072;28;20183;-73
2021/05/28 05:21:21;;;;;;;8.27;6.22;;;;;;;13.08;56.70;96122.72;5050587;28;20189;-74
2021/05/28 05:23:46;;;;;;;9.30;6.67;;;;;;;12.43;58.71;96122.84;5049223;28;20202;-73
2021/05/28 05:26:12;;;;;;;11.23;7.07;;;;;;;13.88;55.00;96119.13;5041373;28;20228;-74
2021/05/28 05:28:37;;;;;;;9.50;6.78;;;;;;;14.55;53.49;96131.56;5023622;28;20190;-74
2021/05/28 05:31:03;;;;;;;7.40;6.27;;;;;;;14.35;53.67;96128.34;5075057;28;20186;-74
2021/05/28 05:33:28;;;;;;;10.48;6.80;;;;;;;13.68;55.31;96125.50;5049745;28;20240;-74
2021/05/28 05:35:54;;;;;;;7.75;6.35;;;;;;;12.96;56.79;96131.72;5047698;28;21359;-75
2021/05/28 05:38:19;;;;;;;9.80;6.60;;;;;;;12.15;59.89;96135.03;5051081;28;20181;-74
2021/05/28 05:40:45;;;;;;;9.17;7.23;;;;;;;12.71;60.08;96141.88;5047391;28;20225;-74
2021/05/28 05:43:10;;;;;;;7.90;6.37;;;;;;;13.10;58.16;96144.25;5049201;28;20237;-74
2021/05/28 05:45:35;;;;;;;7.37;6.63;;;;;;;12.83;58.98;96146.91;5029376;28;20276;-75
2021/05/28 05:48:02;;;;;;;8.30;7.17;;;;;;;12.39;59.98;96147.53;5040360;28;20178;-76
2021/05/28 05:50:27;;;;;;;9.30;6.63;;;;;;;11.57;62.23;96145.56;5050876;28;20227;-73
2021/05/28 05:52:53;;;;;;;12.07;8.37;;;;;;;11.32;64.22;96146.94;5049863;28;20214;-73
2021/05/28 05:55:19;;;;;;;10.87;7.13;;;;;;;11.47;62.86;96142.13;5037936;28;20186;-74
2021/05/28 05:57:46;;;;;;;8.50;6.87;;;;;;;11.74;62.01;96146.59;5035780;28;20189;-73
2021/05/28 06:00:12;;;;;;;10.03;6.87;;;;;;;11.53;62.79;96158.97;5033762;28;20189;-75
2021/05/28 06:02:37;;;;;;;10.40;7.40;;;;;;;11.74;62.80;96159.63;5030967;28;20209;-74
2021/05/28 06:05:03;;;;;;;10.80;7.87;;;;;;;11.94;62.49;96155.25;5023174;28;20187;-74
2021/05/28 06:07:28;;;;;;;11.30;8.30;;;;;;;11.64;62.81;96162.22;5036536;28;20279;-75
2021/05/28 06:09:53;;;;;;;9.60;7.37;;;;;;;11.59;64.19;96169.66;5019413;28;20843;-75
2021/05/28 06:12:19;;;;;;;12.83;8.07;;;;;;;11.77;63.65;96163.75;5049224;28;20190;-75
2021/05/28 06:14:44;;;;;;;11.23;7.40;;;;;;;12.35;62.14;96169.59;5048160;28;20188;-74
2021/05/28 06:17:09;;;;;;;11.37;8.00;;;;;;;13.62;57.33;96178.31;5049047;28;20348;-74
2021/05/28 06:19:35;;;;;;;9.67;7.13;;;;;;;14.77;54.83;96164.97;5051292;28;20642;-73
2021/05/28 06:22:00;;;;;;;9.83;6.57;;;;;;;16.05;51.08;96167.06;5037324;28;20568;-74
2021/05/28 06:24:25;;;;;;;9.30;6.40;;;;;;;15.14;52.60;96167.19;5039515;28;20210;-75
2021/05/28 06:26:51;;;;;;;8.97;6.90;;;;;;;13.88;56.22;96170.53;5048040;28;20193;-73
2021/05/28 06:29:17;;;;;;;9.37;7.23;;;;;;;14.36;53.99;96170.00;5045593;28;20186;-74
2021/05/28 06:31:42;;;;;;;8.47;7.37;;;;;;;13.98;55.28;96162.59;5047305;28;20189;-75
2021/05/28 06:34:07;;;;;;;10.17;7.13;;;;;;;13.96;55.95;96177.56;5044063;28;20206;-75
2021/05/28 06:36:33;;;;;;;11.87;7.40;;;;;;;14.02;55.72;96174.34;5042298;28;20222;-74
2021/05/28 06:38:58;;;;;;;12.13;6.93;;;;;;;13.91;55.36;96179.84;5040635;28;20183;-74
2021/05/28 06:41:24;;;;;;;12.67;7.03;;;;;;;15.65;51.96;96180.22;5046218;28;20186;-74
2021/05/28 06:43:49;;;;;;;15.23;7.33;;;;;;;14.80;51.81;96179.53;5046400;28;20216;-73
2021/05/28 06:46:15;;;;;;;10.63;6.43;;;;;;;14.29;54.22;96175.97;5048101;28;20189;-74
2021/05/28 06:48:41;;;;;;;9.97;7.20;;;;;;;13.67;55.66;96181.28;5047811;28;20240;-74
2021/05/28 06:51:06;;;;;;;11.03;7.27;;;;;;;13.91;54.74;96178.03;5037825;28;20268;-74
2021/05/28 06:53:31;;;;;;;11.57;7.20;;;;;;;14.06;55.23;96178.31;5034662;28;20210;-75
2021/05/28 06:55:57;;;;;;;8.57;6.60;;;;;;;14.01;55.65;96183.16;5046371;28;20193;-72
2021/05/28 06:58:22;;;;;;;9.87;6.60;;;;;;;13.88;56.75;96184.41;5038199;28;20189;-74
2021/05/28 07:00:47;;;;;;;8.20;6.47;;;;;;;13.50;57.30;96195.16;5044358;28;20186;-74
2021/05/28 07:03:13;;;;;;;9.60;6.47;;;;;;;13.48;57.19;96187.50;5048777;28;20208;-74
2021/05/28 07:05:39;;;;;;;10.63;6.90;;;;;;;13.15;58.04;96183.72;5047759;28;20198;-75
2021/05/28 07:08:04;;;;;;;7.10;6.40;;;;;;;13.15;58.96;96194.16;5044646;28;20178;-74
2021/05/28 07:10:30;;;;;;;9.50;6.70;;;;;;;13.22;57.79;96194.41;5045813;28;20177;-74
2021/05/28 07:12:55;;;;;;;7.77;6.83;;;;;;;13.04;57.58;96200.41;5040044;28;20222;-74
2021/05/28 07:15:20;;;;;;;11.07;6.30;;;;;;;13.13;58.28;96200.50;5037148;28;20693;-74
2021/05/28 07:17:46;;;;;;;10.07;6.97;;;;;;;13.10;57.71;96204.22;5046737;28;20189;-76
2021/05/28 07:20:12;;;;;;;8.73;6.27;;;;;;;13.28;58.44;96199.88;5044487;28;20260;-74
2021/05/28 07:22:37;;;;;;;8.67;6.33;;;;;;;13.69;57.19;96209.84;5045344;28;20302;-74
2021/05/28 07:25:04;;;;;;;9.67;5.83;;;;;;;13.65;56.68;96204.09;5044492;28;20186;-74
2021/05/28 07:27:29;;;;;;;8.53;5.33;;;;;;;13.52;56.10;96203.69;5040334;28;20186;-73
2021/05/28 07:29:55;;;;;;;7.53;5.87;;;;;;;13.66;54.54;96208.34;5036981;28;20244;-75
2021/05/28 07:32:20;;;;;;;5.93;5.23;;;;;;;13.36;56.17;96211.34;5021291;28;20205;-76
2021/05/28 07:34:46;;;;;;;8.67;5.50;;;;;;;13.20;57.44;96210.22;5047237;28;20184;-75
2021/05/28 07:37:11;;;;;;;11.27;5.50;;;;;;;13.49;56.88;96206.56;5044268;28;20186;-74
2021/05/28 07:39:36;;;;;;;7.77;5.23;;;;;;;13.62;55.63;96206.22;5047428;28;20625;-76
2021/05/28 07:42:03;;;;;;;8.33;5.67;;;;;;;13.50;56.11;96200.38;5046277;28;20179;-76
2021/05/28 07:44:29;;;;;;;10.40;5.67;;;;;;;13.83;56.50;96209.31;5045217;28;20194;-75
2021/05/28 07:46:55;;;;;;;7.87;5.20;;;;;;;14.25;53.55;96200.78;5047878;28;20190;-76
2021/05/28 07:49:20;;;;;;;8.43;4.57;;;;;;;14.48;53.40;96206.31;5045892;28;20231;-76
2021/05/28 07:51:46;;;;;;;6.07;4.03;;;;;;;14.01;52.12;96201.44;5017666;28;20202;-75
2021/05/28 07:54:12;;;;;;;4.83;4.30;;;;;;;14.72;51.04;96203.84;5047146;28;20280;-75
2021/05/28 07:56:37;;;;;;;6.60;4.13;;;;;;;15.22;51.70;96205.63;5041282;28;20198;-73
2021/05/28 07:59:03;;;;;;;5.17;4.47;;;;;;;15.02;51.03;96205.91;5046030;28;20182;-75
2021/05/28 08:01:29;;;;;;;5.13;4.07;;;;;;;13.66;52.17;96210.16;5044377;28;20194;-74
2021/05/28 08:03:57;;;;;;;5.17;3.93;;;;;;;13.94;51.21;96206.44;5045929;28;20202;-75
2021/05/28 08:06:23;;;;;;;7.00;5.53;;;;;;;12.36;55.61;96206.88;5033422;28;20186;-75
2021/05/28 08:08:49;;;;;;;6.90;4.43;;;;;;;12.35;54.68;96208.69;5037794;28;20630;-75
2021/05/28 08:11:14;;;;;;;7.10;4.50;;;;;;;12.20;55.91;96202.31;5078344;28;20212;-75
2021/05/28 08:13:40;;;;;;;8.13;5.73;;;;;;;11.96;58.13;96204.56;5046377;28;20288;-74
2021/05/28 08:16:05;;;;;;;9.93;5.63;;;;;;;12.04;57.84;96200.28;5029884;28;20182;-75
2021/05/28 08:18:31;;;;;;;8.60;6.13;;;;;;;12.52;58.55;96201.09;5039712;28;20182;-75
2021/05/28 08:20:57;;;;;;;9.70;6.97;;;;;;;12.97;57.65;96201.13;5044667;28;20272;-75
2021/05/28 08:23:22;;;;;;;9.43;6.33;;;;;;;13.59;56.34;96207.31;5033381;28;20202;-74
2021/05/28 08:25:49;;;;;;;9.00;6.50;;;;;;;14.21;53.93;96207.28;5044534;28;20182;-74
2021/05/28 08:28:16;;;;;;;9.63;7.27;;;;;;;13.39;55.13;96201.44;5043825;28;20182;-73
2021/05/28 08:30:42;;;;;;;10.67;6.10;;;;;;;14.38;52.90;96202.00;5043792;28;20296;-74
2021/05/28 08:33:08;;;;;;;8.90;6.13;;;;;;;14.41;52.94;96204.31;5045536;28;20293;-74
2021/05/28 08:35:33;;;;;;;8.13;5.77;;;;;;;13.89;53.17;96201.69;5041982;28;20179;-74
2021/05/28 08:37:59;;;;;;;9.53;4.97;;;;;;;13.87;52.25;96208.88;5044758;28;20189;-74
2021/05/28 08:40:29;;;;;;;11.30;5.60;;;;;;;13.70;53.07;96203.69;5044443;28;20182;-73
2021/05/28 08:42:54;;;;;;;8.13;5.30;;;;;;;12.51;56.22;96197.66;5047737;28;20202;-73
2021/05/28 08:45:20;;;;;;;6.67;5.63;;;;;;;12.74;56.21;96200.72;5038248;28;20186;-75
2021/05/28 08:47:45;;;;;;;9.30;5.93;;;;;;;12.70;57.45;96205.38;5033102;28;20550;-75
2021/05/28 08:50:11;;;;;;;6.27;5.10;;;;;;;12.86;56.26;96196.13;5028704;28;20202;-75
2021/05/28 08:52:36;;;;;;;7.87;4.53;;;;;;;13.55;53.31;96206.81;5046070;28;20596;-75
2021/05/28 08:55:02;;;;;;;7.47;4.63;;;;;;;14.10;52.85;96203.97;5040138;28;20693;-75
2021/05/28 08:57:27;;;;;;;5.83;4.33;;;;;;;14.42;51.37;96192.06;5062867;28;20185;-76
2021/05/28 08:59:52;;;;;;;8.23;4.87;;;;;;;14.24;52.48;96194.75;5038084;28;20185;-74
2021/05/28 09:02:35;;;;;;;8.27;5.53;;;;;;;13.95;52.27;96194.22;5041417;28;20188;-74
2021/05/28 09:05:08;;;;;;;6.90;4.60;;;;;;;14.01;52.64;96194.44;5049707;28;20621;-75
2021/05/28 09:07:33;;;;;;;5.07;4.07;;;;;;;13.66;50.08;96199.72;5049196;28;20275;-74
2021/05/28 09:09:59;;;;;;;6.20;4.30;;;;;;;13.98;49.43;96196.53;5038408;28;20220;-73
2021/05/28 09:12:28;;;;;;;4.77;3.47;;;;;;;14.42;49.20;96200.72;5050883;28;20242;-74
2021/05/28 09:14:53;;;;;;;7.03;4.27;;;;;;;14.46;48.49;96209.09;5043705;28;20308;-75
2021/05/28 09:17:18;;;;;;;6.30;4.10;;;;;;;14.29;51.03;96199.50;5042975;28;20350;-75
2021/05/28 09:19:52;;;;;;;4.60;4.00;;;;;;;13.71;51.04;96207.91;5035259;28;20600;-76
2021/05/28 09:22:19;;;;;;;6.57;4.40;;;;;;;14.15;51.28;96201.72;5037387;28;20186;-75
2021/05/28 09:24:45;;;;;;;5.50;3.30;;;;;;;14.69;50.18;96202.34;5048542;28;20182;-75
2021/05/28 09:27:27;;;;;;;5.30;3.97;;;;;;;14.82;50.42;96207.13;5049654;28;20248;-75
2021/05/28 09:29:59;;;;;;;4.43;3.53;;;;;;;15.00;48.23;96204.41;5036361;28;20191;-75
2021/05/28 09:32:25;;;;;;;6.37;3.70;;;;;;;14.67;49.44;96206.94;5039325;28;20229;-75
2021/05/28 09:34:51;;;;;;;4.43;3.80;;;;;;;14.65;49.46;96211.47;5083284;28;20186;-75
2021/05/28 09:37:16;;;;;;;5.47;3.93;;;;;;;15.07;48.14;96212.47;5030379;28;20189;-74
2021/05/28 09:39:41;;;;;;;7.23;3.93;;;;;;;14.12;49.44;96204.63;5046913;28;20194;-77
2021/05/28 09:42:06;;;;;;;7.17;3.90;;;;;;;13.43;51.20;96204.56;5049602;28;20258;-75
2021/05/28 09:44:32;;;;;;;5.10;3.80;;;;;;;14.34;49.32;96200.69;5046646;28;20545;-75
2021/05/28 09:47:13;;;;;;;5.20;3.47;;;;;;;13.86;50.93;96201.97;5084032;28;20193;-74
2021/05/28 09:49:47;;;;;;;6.03;3.50;;;;;;;13.91;50.45;96195.50;5048972;28;20196;-75
2021/05/28 09:52:12;;;;;;;4.20;3.20;;;;;;;13.35;51.28;96199.28;5083044;28;20228;-75
2021/05/28 09:54:53;;;;;;;5.00;3.60;;;;;;;13.00;51.88;96196.47;5044211;28;20670;-72
2021/05/28 09:57:30;;;;;;;6.17;3.80;;;;;;;13.43;50.52;96194.13;5050719;28;20190;-74
2021/05/28 09:59:55;;;;;;;6.03;5.47;;;;;;;13.72;50.16;96199.13;5035848;28;20201;-75
2021/05/28 10:02:33;;;;;;;3.57;3.23;;;;;;;13.98;49.84;96194.75;5048533;28;20174;-74
2021/05/28 10:04:59;;;;;;;4.33;3.33;;;;;;;13.84;47.80;96201.31;5035228;28;20186;-75
2021/05/28 10:07:26;;;;;;;4.13;3.50;;;;;;;13.20;49.26;96201.56;5064360;28;20543;-74
2021/05/28 10:09:54;;;;;;;3.30;3.00;;;;;;;13.43;49.88;96202.78;5048398;28;20189;-74
2021/05/28 10:12:20;;;;;;;3.43;2.97;;;;;;;14.13;47.79;96205.44;5045721;28;20202;-73
2021/05/28 10:14:46;;;;;;;4.17;3.33;;;;;;;14.18;48.29;96197.97;5033057;28;20235;-74
2021/05/28 10:17:11;;;;;;;5.00;2.93;;;;;;;13.87;48.81;96200.22;5048069;28;20232;-75
2021/05/28 10:19:37;;;;;;;5.83;2.90;;;;;;;14.06;48.22;96194.00;5051085;28;20752;-74
2021/05/28 10:22:03;;;;;;;3.77;2.90;;;;;;;14.19;47.69;96197.00;5029011;28;20177;-74
2021/05/28 10:24:29;;;;;;;4.10;3.23;;;;;;;14.31;48.05;96194.94;5049787;28;20193;-73
2021/05/28 10:26:55;;;;;;;3.60;2.60;;;;;;;14.29;48.80;96195.09;5049353;28;20189;-74
2021/05/28 10:29:27;;;;;;;5.60;2.73;;;;;;;13.84;48.23;96188.28;5049135;28;20680;-74
2021/05/28 10:32:01;;;;;;;4.30;2.70;;;;;;;13.41;48.26;96196.06;5029257;28;20280;-75
2021/05/28 10:34:28;;;;;;;4.60;2.70;;;;;;;13.56;47.83;96187.56;5048195;28;20204;-74
2021/05/28 10:36:56;;;;;;;2.90;2.20;;;;;;;13.48;46.52;96194.50;5053045;28;20182;-76
2021/05/28 10:39:21;;;;;;;4.47;2.73;;;;;;;13.34;49.00;96190.63;5047124;28;20280;-73
2021/05/28 10:41:49;;;;;;;4.53;2.50;;;;;;;13.51;48.56;96189.78;5037865;28;20196;-73
2021/05/28 10:44:16;;;;;;;3.37;2.77;;;;;;;13.25;50.77;96187.13;5048001;28;20696;-74
2021/05/28 10:46:53;;;;;;;5.27;2.90;;;;;;;13.16;50.86;96190.56;5075259;28;20650;-73
2021/05/28 10:49:18;;;;;;;3.00;2.70;;;;;;;13.66;51.45;96190.09;5041090;28;20189;-74
2021/05/28 10:51:46;;;;;;;5.43;3.37;;;;;;;13.26;51.78;96193.16;5047846;28;20202;-74
2021/05/28 10:54:15;;;;;;;4.50;3.40;;;;;;;13.05;53.52;96190.78;5032527;28;20205;-74
2021/05/28 10:56:44;;;;;;;6.07;3.20;;;;;;;13.05;54.09;96185.56;5034665;28;20191;-75
2021/05/28 10:59:13;;;;;;;5.27;3.30;;;;;;;13.53;51.60;96184.44;5042607;28;20527;-75
2021/05/28 11:01:42;;;;;;;6.03;2.93;;;;;;;13.70;50.82;96191.44;5048123;28;20208;-76
2021/05/28 11:04:09;;;;;;;3.33;3.03;;;;;;;13.58;51.31;96190.84;5040030;28;20198;-76
2021/05/28 11:07:04;;;;;;;4.83;2.70;;;;;;;13.66;50.02;96189.28;5032613;28;20199;-76
2021/05/28 11:09:48;;;;;;;3.17;2.77;;;;;;;14.08;49.20;96189.41;5038827;28;20650;-76
2021/05/28 11:12:26;;;;;;;3.23;2.83;;;;;;;14.57;45.86;96187.09;5048157;28;20308;-75
2021/05/28 11:15:03;;;;;;;3.40;2.30;;;;;;;14.82;45.75;96188.00;5041882;28;20650;-76
2021/05/28 11:17:29;;;;;;;2.23;2.00;;;;;;;15.00;45.59;96189.53;5035372;28;20190;-74
2021/05/28 11:19:57;;;;;;;4.60;2.70;;;;;;;14.63;46.16;96187.28;5034856;28;20592;-74
2021/05/28 11:22:30;;;;;;;2.87;2.37;;;;;;;14.47;46.73;96178.56;5005391;28;20316;-76
2021/05/28 11:24:58;;;;;;;2.77;2.30;;;;;;;14.79;46.38;96180.50;5036525;28;20186;-73
2021/05/28 11:27:23;;;;;;;3.17;2.63;;;;;;;14.84;46.16;96175.59;5044385;28;20178;-76
2021/05/28 11:29:53;;;;;;;3.50;2.20;;;;;;;15.09;45.03;96179.94;5033245;28;20181;-74
2021/05/28 11:32:43;;;;;;;3.87;2.17;;;;;;;15.26;45.19;96180.78;5044541;28;20221;-76
2021/05/28 11:35:13;;;;;;;4.43;2.60;;;;;;;14.60;44.63;96178.97;5045626;28;20656;-73